Decoded Metar for LEAG (Algeciras in SPAIN) (IATA:N/A) | Meteo·Mobile Aviation Weather
aviador You're here:

LEAG Decoded Metar

Algeciras in SPAIN
Report Time2019-07-20 01:00:00
UTC Time2019-07-20 01:12:48
Flight Rules mvfr MVFR
Wind080° at 06 kt
Visibility9999 m
Phenomena:N/A
Clouds:Broken 020 Hf
Expected CloudBase > 1,600 ft AGL from Temp-Dew spread
Ceiling2,000 ft
Temp24°C
Dew Point20°C (78% RH)
QNH1013 hPa
Raw Report
METAR LEAG 200100Z AUTO 08006KT 030V100 9999 BKN020 24/20 Q1013=

Extra information for LEAG:More info

Metar Taf Metar & Taf Last 4 Metars F.Rules Stats Wind Profile Meteogram Temp Stats Airport Information Weather charts Add Link Nearby VenuesMetar ALERT Operation Metar Decoded Social comments